createdAt,value
2022-10-22T00:02:06.818Z,9.13
2022-10-22T00:04:35.866Z,9.16
2022-10-22T00:07:07.040Z,9.16
2022-10-22T00:09:39.428Z,9.20
2022-10-22T00:12:09.208Z,9.22
2022-10-22T00:14:37.901Z,9.24
2022-10-22T00:17:10.495Z,9.28
2022-10-22T00:19:40.529Z,9.33
2022-10-22T00:22:11.383Z,9.36
2022-10-22T00:24:41.206Z,9.33
2022-10-22T00:27:13.013Z,9.38
2022-10-22T00:29:41.296Z,9.27
2022-10-22T00:32:12.721Z,9.20
2022-10-22T00:34:40.938Z,9.19
2022-10-22T00:37:09.405Z,9.19
2022-10-22T00:39:37.835Z,9.16
2022-10-22T00:42:07.228Z,9.16
2022-10-22T00:45:09.826Z,9.19
2022-10-22T00:47:41.310Z,9.16
2022-10-22T00:50:16.148Z,9.22
2022-10-22T00:52:45.395Z,9.13
2022-10-22T00:55:16.026Z,9.16
2022-10-22T00:57:45.269Z,9.22
2022-10-22T01:00:16.695Z,9.10
2022-10-22T01:02:46.919Z,9.07
2022-10-22T01:05:15.370Z,9.12
2022-10-22T01:07:46.863Z,9.09
2022-10-22T01:10:23.978Z,9.15
2022-10-22T01:13:01.608Z,9.15
2022-10-22T01:15:40.083Z,9.10
2022-10-22T01:18:12.387Z,9.19
2022-10-22T01:21:01.276Z,9.17
2022-10-22T01:23:57.025Z,9.27
2022-10-22T01:26:35.053Z,9.30
2022-10-22T01:29:14.575Z,9.26
2022-10-22T01:31:47.542Z,9.23
2022-10-22T01:34:21.071Z,9.24
2022-10-22T01:36:52.754Z,9.28
2022-10-22T01:39:23.281Z,9.26
2022-10-22T01:41:52.166Z,9.26
2022-10-22T01:47:16.007Z,9.30
2022-10-22T01:50:17.229Z,9.27
2022-10-22T01:53:08.354Z,9.19
2022-10-22T01:55:44.993Z,9.12
2022-10-22T01:58:24.262Z,9.06
2022-10-22T02:01:02.216Z,9.00
2022-10-22T02:03:35.157Z,8.99
2022-10-22T02:06:08.976Z,9.10
2022-10-22T02:08:39.008Z,9.02
2022-10-22T02:11:07.993Z,8.86
2022-10-22T02:13:40.901Z,8.83
2022-10-22T02:16:14.369Z,8.82
2022-10-22T02:18:46.459Z,8.92
2022-10-22T02:21:15.843Z,8.90
2022-10-22T02:23:44.641Z,8.86
2022-10-22T02:26:23.721Z,8.75
2022-10-22T02:28:59.309Z,8.54
2022-10-22T02:31:32.615Z,8.50
2022-10-22T02:34:08.273Z,8.58
2022-10-22T02:36:40.134Z,8.50
2022-10-22T02:41:45.283Z,8.44
2022-10-22T02:44:13.839Z,8.45
2022-10-22T02:46:44.865Z,8.44
2022-10-22T02:49:13.241Z,8.59
2022-10-22T02:51:41.543Z,8.52
2022-10-22T02:54:09.763Z,8.38
2022-10-22T02:56:41.175Z,8.19
2022-10-22T02:59:09.768Z,8.16
2022-10-22T03:01:38.130Z,8.21
2022-10-22T03:04:09.944Z,8.16
2022-10-22T03:06:38.309Z,8.06
2022-10-22T03:09:07.775Z,7.93
2022-10-22T03:11:38.434Z,7.92
2022-10-22T03:14:07.429Z,7.92
2022-10-22T03:16:35.464Z,7.93
2022-10-22T03:19:03.921Z,7.85
2022-10-22T03:21:38.415Z,7.81
2022-10-22T03:24:11.038Z,7.72
2022-10-22T03:26:41.793Z,7.68
2022-10-22T03:29:11.901Z,7.65
2022-10-22T03:31:41.109Z,7.55
2022-10-22T03:34:15.308Z,7.42
2022-10-22T03:36:45.415Z,7.32
2022-10-22T03:39:15.648Z,7.54
2022-10-22T03:41:46.069Z,7.54
2022-10-22T03:44:14.738Z,7.45
2022-10-22T03:46:46.578Z,7.42
2022-10-22T03:49:14.651Z,7.34
2022-10-22T03:51:44.501Z,7.31
2022-10-22T03:54:12.987Z,7.28
2022-10-22T03:56:41.418Z,7.23
2022-10-22T03:59:09.454Z,7.23
2022-10-22T04:01:40.574Z,7.18
2022-10-22T04:04:09.459Z,7.15
2022-10-22T04:06:38.486Z,7.13
2022-10-22T04:09:09.239Z,7.07
2022-10-22T04:11:37.650Z,7.06
2022-10-22T04:14:06.568Z,7.08
2022-10-22T04:16:40.342Z,7.11
2022-10-22T04:19:08.866Z,7.18
2022-10-22T04:21:39.154Z,7.17
2022-10-22T04:24:11.835Z,7.25
2022-10-22T04:26:40.297Z,7.23
2022-10-22T04:29:11.973Z,7.15
2022-10-22T04:31:47.957Z,7.13
2022-10-22T04:34:15.994Z,7.10
2022-10-22T04:36:44.361Z,7.14
2022-10-22T04:39:16.598Z,7.15
2022-10-22T04:41:48.777Z,7.18
2022-10-22T04:44:17.135Z,7.13
2022-10-22T04:46:47.059Z,6.97
2022-10-22T04:49:15.453Z,6.93
2022-10-22T04:51:43.948Z,6.93
2022-10-22T04:54:14.965Z,6.94
2022-10-22T04:56:43.710Z,6.86
2022-10-22T04:59:14.949Z,6.80
2022-10-22T05:01:45.802Z,6.85
2022-10-22T05:04:17.529Z,6.87
2022-10-22T05:06:46.934Z,6.82
2022-10-22T05:09:18.711Z,6.75
2022-10-22T05:11:49.871Z,6.80
2022-10-22T05:14:20.107Z,6.73
2022-10-22T05:16:49.401Z,6.68
2022-10-22T05:19:20.374Z,6.73
2022-10-22T05:21:48.908Z,6.79
2022-10-22T05:24:19.607Z,6.79
2022-10-22T05:26:50.819Z,6.75
2022-10-22T05:29:24.430Z,6.68
2022-10-22T05:31:53.550Z,6.68
2022-10-22T05:34:21.595Z,6.75
2022-10-22T05:36:49.660Z,6.80
2022-10-22T05:39:22.021Z,6.79
2022-10-22T05:41:58.589Z,6.86
2022-10-22T05:44:29.491Z,6.76
2022-10-22T05:46:58.402Z,6.79
2022-10-22T05:49:28.240Z,6.76
2022-10-22T05:51:58.282Z,6.80
2022-10-22T05:54:28.073Z,6.90
2022-10-22T05:56:59.655Z,6.92
2022-10-22T05:59:30.221Z,6.90
2022-10-22T06:02:01.518Z,6.92
2022-10-22T06:04:30.234Z,6.89
2022-10-22T06:06:58.592Z,6.89
2022-10-22T06:12:11.104Z,6.92
2022-10-22T06:14:40.687Z,7.04
2022-10-22T06:17:11.750Z,7.13
2022-10-22T06:19:40.420Z,7.25
2022-10-22T06:22:09.216Z,7.28
2022-10-22T06:24:45.129Z,7.34
2022-10-22T06:27:16.397Z,7.38
2022-10-22T06:29:45.927Z,7.44
2022-10-22T06:32:14.349Z,7.51
2022-10-22T06:34:43.975Z,7.65
2022-10-22T06:37:13.879Z,7.78
2022-10-22T06:39:43.804Z,7.78
2022-10-22T06:42:12.947Z,7.83
2022-10-22T06:44:41.226Z,7.90
2022-10-22T06:47:09.652Z,8.00
2022-10-22T06:49:37.949Z,8.11
2022-10-22T06:52:07.202Z,8.29
2022-10-22T06:54:36.376Z,8.64
2022-10-22T06:57:06.684Z,8.85
2022-10-22T06:59:38.581Z,9.02
2022-10-22T07:02:08.799Z,9.19
2022-10-22T07:04:37.192Z,9.46
2022-10-22T07:07:06.081Z,9.70
2022-10-22T07:09:34.289Z,9.85
2022-10-22T07:12:02.878Z,9.96
2022-10-22T07:14:35.510Z,10.03
2022-10-22T07:17:04.097Z,10.12
2022-10-22T07:19:33.861Z,10.17
2022-10-22T07:22:03.171Z,10.25
2022-10-22T07:24:31.372Z,10.33
2022-10-22T07:27:00.994Z,10.33
2022-10-22T07:29:29.585Z,10.34
2022-10-22T07:31:59.911Z,10.26
2022-10-22T07:34:28.257Z,10.32
2022-10-22T07:36:57.388Z,10.42
2022-10-22T07:39:27.473Z,10.52
2022-10-22T07:41:55.999Z,10.63
2022-10-22T07:44:24.704Z,10.74
2022-10-22T07:46:53.024Z,10.85
2022-10-22T07:49:23.967Z,10.98
2022-10-22T07:51:52.489Z,11.02
2022-10-22T07:54:20.887Z,11.18
2022-10-22T07:56:50.345Z,11.35
2022-10-22T07:59:18.785Z,11.47
2022-10-22T08:01:47.485Z,11.53
2022-10-22T08:04:15.526Z,11.60
2022-10-22T08:06:47.219Z,11.63
2022-10-22T08:09:16.544Z,11.78
2022-10-22T08:11:47.753Z,11.81
2022-10-22T08:14:16.881Z,11.99
2022-10-22T08:16:46.445Z,12.17
2022-10-22T08:19:19.443Z,12.31
2022-10-22T08:21:49.401Z,12.41
2022-10-22T08:24:17.943Z,12.62
2022-10-22T08:26:46.150Z,12.72
2022-10-22T08:29:14.590Z,12.90
2022-10-22T08:31:44.274Z,13.11
2022-10-22T08:34:13.523Z,13.37
2022-10-22T08:36:42.003Z,13.62
2022-10-22T08:39:11.904Z,13.99
2022-10-22T08:41:51.881Z,14.24
2022-10-22T08:44:57.125Z,14.48
2022-10-22T08:47:39.148Z,14.56
2022-10-22T08:50:10.685Z,14.65
2022-10-22T08:52:43.714Z,14.69
2022-10-22T08:55:16.508Z,14.69
2022-10-22T08:57:53.619Z,14.81
2022-10-22T09:00:25.379Z,14.77
2022-10-22T09:03:06.567Z,14.51
2022-10-22T09:05:47.035Z,14.44
2022-10-22T09:08:18.339Z,14.51
2022-10-22T09:10:51.568Z,14.61
2022-10-22T09:13:22.891Z,14.61
2022-10-22T09:15:58.573Z,14.56
2022-10-22T09:18:37.310Z,14.56
2022-10-22T09:21:18.376Z,14.51
2022-10-22T09:23:59.235Z,14.54
2022-10-22T09:26:28.933Z,14.60
2022-10-22T09:29:02.047Z,14.44
2022-10-22T09:31:33.808Z,14.47
2022-10-22T09:34:07.707Z,14.47
2022-10-22T09:36:36.336Z,14.56
2022-10-22T09:39:05.459Z,14.58
2022-10-22T09:41:37.864Z,14.72
2022-10-22T09:44:09.182Z,14.81
2022-10-22T09:46:44.984Z,14.92
2022-10-22T09:49:15.514Z,14.86
2022-10-22T09:51:52.215Z,14.89
2022-10-22T09:54:22.722Z,14.68
2022-10-22T09:56:58.045Z,14.75
2022-10-22T09:59:30.723Z,14.79
2022-10-22T10:02:13.839Z,14.98
2022-10-22T10:04:51.420Z,15.13
2022-10-22T10:07:23.077Z,15.34
2022-10-22T10:09:52.455Z,15.42
2022-10-22T10:12:33.556Z,15.49
2022-10-22T10:15:16.875Z,15.39
2022-10-22T10:17:52.414Z,15.36
2022-10-22T10:20:32.225Z,15.40
2022-10-22T10:23:10.522Z,15.51
2022-10-22T10:25:49.669Z,15.43
2022-10-22T10:28:46.822Z,15.55
2022-10-22T10:31:24.544Z,15.74
2022-10-22T10:34:00.563Z,15.84
2022-10-22T10:36:39.640Z,15.47
2022-10-22T10:39:14.017Z,15.73
2022-10-22T10:41:53.375Z,15.74
2022-10-22T10:44:52.150Z,15.85
2022-10-22T10:47:40.324Z,15.90
2022-10-22T10:50:20.144Z,15.90
2022-10-22T10:53:05.955Z,16.06
2022-10-22T10:55:43.668Z,15.90
2022-10-22T10:58:19.368Z,15.84
2022-10-22T11:01:00.261Z,15.75
2022-10-22T11:03:42.159Z,15.84
2022-10-22T11:06:13.300Z,15.77
2022-10-22T11:08:50.306Z,15.80
2022-10-22T11:11:23.016Z,15.90
2022-10-22T11:14:00.818Z,15.91
2022-10-22T11:16:36.860Z,16.09
2022-10-22T11:19:15.531Z,16.05
2022-10-22T11:21:57.916Z,16.28
2022-10-22T11:24:29.636Z,16.36
2022-10-22T11:27:02.438Z,16.32
2022-10-22T11:29:39.506Z,16.25
2022-10-22T11:32:14.975Z,16.19
2022-10-22T11:34:47.934Z,16.11
2022-10-22T11:37:18.091Z,16.18
2022-10-22T11:39:52.060Z,16.18
2022-10-22T11:42:22.520Z,16.05
2022-10-22T11:45:01.249Z,15.91
2022-10-22T11:47:34.409Z,16.00
2022-10-22T11:50:21.658Z,16.13
2022-10-22T11:53:00.378Z,16.15
2022-10-22T11:55:34.527Z,16.25
2022-10-22T11:58:04.336Z,16.26
2022-10-22T12:00:42.739Z,16.28
2022-10-22T12:03:20.188Z,16.18
2022-10-22T12:06:03.498Z,16.28
2022-10-22T12:08:33.132Z,16.19
2022-10-22T12:11:22.171Z,16.26
2022-10-22T12:14:02.841Z,16.29
2022-10-22T12:16:56.651Z,16.30
2022-10-22T12:19:30.590Z,16.50
2022-10-22T12:22:01.685Z,16.52
2022-10-22T12:24:33.997Z,16.64
2022-10-22T12:27:02.352Z,16.77
2022-10-22T12:29:33.756Z,16.73
2022-10-22T12:32:08.050Z,16.71
2022-10-22T12:37:24.500Z,16.43
2022-10-22T12:39:52.828Z,16.42
2022-10-22T12:42:23.799Z,16.38
2022-10-22T12:44:58.316Z,16.25
2022-10-22T12:47:32.428Z,16.23
2022-10-22T12:50:06.183Z,16.23
2022-10-22T12:52:35.203Z,16.21
2022-10-22T12:55:08.482Z,16.08
2022-10-22T12:57:39.761Z,16.09
2022-10-22T13:00:22.070Z,16.04
2022-10-22T13:02:54.346Z,16.06
2022-10-22T13:05:28.263Z,16.08
2022-10-22T13:08:06.860Z,16.01
2022-10-22T13:10:39.174Z,15.95
2022-10-22T13:13:08.095Z,15.87
2022-10-22T13:15:42.691Z,15.84
2022-10-22T13:18:19.533Z,15.82
2022-10-22T13:20:59.109Z,15.85
2022-10-22T13:23:29.979Z,15.77
2022-10-22T13:26:00.487Z,15.81
2022-10-22T13:28:29.709Z,15.82
2022-10-22T13:31:00.127Z,15.82
2022-10-22T13:33:32.113Z,15.80
2022-10-22T13:36:01.811Z,15.78
2022-10-22T13:38:30.503Z,15.88
2022-10-22T13:41:00.836Z,15.77
2022-10-22T13:43:29.309Z,15.70
2022-10-22T13:46:00.266Z,15.58
2022-10-22T13:48:29.758Z,15.54
2022-10-22T13:50:58.003Z,15.53
2022-10-22T13:53:30.832Z,15.40
2022-10-22T13:55:59.855Z,15.42
2022-10-22T13:58:29.482Z,15.42
2022-10-22T14:01:03.164Z,15.42
2022-10-22T14:03:35.148Z,15.36
2022-10-22T14:06:03.358Z,15.26
2022-10-22T14:08:33.329Z,15.18
2022-10-22T14:11:01.774Z,15.12
2022-10-22T14:13:29.976Z,15.09
2022-10-22T14:15:58.762Z,15.12
2022-10-22T14:18:31.693Z,15.03
2022-10-22T14:21:05.031Z,14.99
2022-10-22T14:23:37.258Z,15.02
2022-10-22T14:26:07.704Z,14.99
2022-10-22T14:28:41.234Z,14.95
2022-10-22T14:31:12.295Z,14.84
2022-10-22T14:33:41.155Z,14.75
2022-10-22T14:36:13.083Z,14.74
2022-10-22T14:38:42.990Z,14.71
2022-10-22T14:41:20.039Z,14.69
2022-10-22T14:43:49.384Z,14.68
2022-10-22T14:46:18.689Z,14.65
2022-10-22T14:48:47.465Z,14.67
2022-10-22T14:51:19.010Z,14.64
2022-10-22T14:53:50.078Z,14.60
2022-10-22T14:56:21.320Z,14.52
2022-10-22T14:58:50.716Z,14.56
2022-10-22T15:01:19.339Z,14.44
2022-10-22T15:03:47.913Z,14.44
2022-10-22T15:06:16.390Z,14.44
2022-10-22T15:08:46.310Z,14.40
2022-10-22T15:11:16.491Z,14.30
2022-10-22T15:13:45.257Z,14.26
2022-10-22T15:16:16.942Z,14.27
2022-10-22T15:18:45.697Z,14.23
2022-10-22T15:21:17.276Z,14.12
2022-10-22T15:23:45.768Z,14.03
2022-10-22T15:26:16.071Z,14.02
2022-10-22T15:28:44.977Z,14.03
2022-10-22T15:31:15.023Z,13.98
2022-10-22T15:33:44.162Z,13.90
2022-10-22T15:36:15.044Z,13.86
2022-10-22T15:38:44.510Z,13.82
2022-10-22T15:41:16.218Z,13.85
2022-10-22T15:43:44.936Z,13.78
2022-10-22T15:46:16.804Z,13.79
2022-10-22T15:48:47.440Z,13.69
2022-10-22T15:51:20.775Z,13.72
2022-10-22T15:53:53.156Z,13.73
2022-10-22T15:56:25.313Z,13.76
2022-10-22T15:58:54.818Z,13.65
2022-10-22T16:01:26.572Z,13.61
2022-10-22T16:04:02.866Z,13.57
2022-10-22T16:06:33.688Z,13.45
2022-10-22T16:09:05.347Z,13.34
2022-10-22T16:11:40.359Z,13.32
2022-10-22T16:14:10.272Z,13.27
2022-10-22T16:16:42.863Z,13.04
2022-10-22T16:19:12.891Z,13.03
2022-10-22T16:21:42.153Z,12.96
2022-10-22T16:24:10.676Z,12.89
2022-10-22T16:26:40.899Z,12.80
2022-10-22T16:29:13.595Z,12.76
2022-10-22T16:31:43.805Z,12.65
2022-10-22T16:34:13.058Z,12.53
2022-10-22T16:36:46.199Z,12.36
2022-10-22T16:39:17.127Z,12.31
2022-10-22T16:41:48.187Z,12.28
2022-10-22T16:44:17.170Z,12.31
2022-10-22T16:46:48.545Z,12.35
2022-10-22T16:49:19.557Z,12.29
2022-10-22T16:51:51.257Z,12.28
2022-10-22T16:54:22.115Z,12.21
2022-10-22T16:56:53.218Z,12.18
2022-10-22T16:59:22.348Z,12.17
2022-10-22T17:01:52.850Z,12.14
2022-10-22T17:04:23.047Z,12.08
2022-10-22T17:06:52.343Z,12.05
2022-10-22T17:09:24.762Z,12.07
2022-10-22T17:11:56.221Z,11.97
2022-10-22T17:14:25.253Z,11.93
2022-10-22T17:16:59.196Z,11.88
2022-10-22T17:19:31.836Z,11.88
2022-10-22T17:22:03.038Z,11.90
2022-10-22T17:24:33.092Z,11.84
2022-10-22T17:29:37.932Z,11.77
2022-10-22T17:32:06.671Z,11.73
2022-10-22T17:34:35.473Z,11.73
2022-10-22T17:37:06.441Z,11.69
2022-10-22T17:39:35.164Z,11.62
2022-10-22T17:42:06.476Z,11.62
2022-10-22T17:44:43.339Z,11.55
2022-10-22T17:47:12.956Z,11.60
2022-10-22T17:49:43.235Z,11.63
2022-10-22T17:52:13.867Z,11.65
2022-10-22T17:54:42.917Z,11.67
2022-10-22T17:57:14.596Z,11.60
2022-10-22T17:59:43.311Z,11.55
2022-10-22T18:02:18.155Z,11.47
2022-10-22T18:04:46.903Z,11.44
2022-10-22T18:07:18.508Z,11.38
2022-10-22T18:09:48.087Z,11.38
2022-10-22T18:12:19.576Z,11.40
2022-10-22T18:14:50.357Z,11.38
2022-10-22T18:17:21.128Z,11.35
2022-10-22T18:19:51.637Z,11.35
2022-10-22T18:22:21.570Z,11.32
2022-10-22T18:24:50.932Z,11.32
2022-10-22T18:27:21.412Z,11.35
2022-10-22T18:29:57.355Z,11.32
2022-10-22T18:32:26.917Z,11.36
2022-10-22T18:34:55.470Z,11.33
2022-10-22T18:37:23.996Z,11.26
2022-10-22T18:39:52.821Z,11.30
2022-10-22T18:42:26.458Z,11.30
2022-10-22T18:44:58.073Z,11.32
2022-10-22T18:47:27.708Z,11.32
2022-10-22T18:50:00.257Z,11.32
2022-10-22T18:52:32.512Z,11.30
2022-10-22T18:55:08.275Z,11.29
2022-10-22T18:57:38.968Z,11.28
2022-10-22T19:00:09.780Z,11.38
2022-10-22T19:02:39.246Z,11.33
2022-10-22T19:05:09.744Z,11.40
2022-10-22T19:07:39.033Z,11.36
2022-10-22T19:10:09.234Z,11.33
2022-10-22T19:12:45.118Z,11.32
2022-10-22T19:15:18.715Z,11.29
2022-10-22T19:17:48.477Z,11.29
2022-10-22T19:20:17.562Z,11.26
2022-10-22T19:22:48.500Z,11.23
2022-10-22T19:25:17.212Z,11.15
2022-10-22T19:27:51.898Z,11.09
2022-10-22T19:30:20.838Z,11.07
2022-10-22T19:32:50.187Z,11.04
2022-10-22T19:35:20.248Z,11.05
2022-10-22T19:37:49.916Z,10.98
2022-10-22T19:40:25.722Z,10.90
2022-10-22T19:42:56.669Z,10.90
2022-10-22T19:45:25.905Z,10.92
2022-10-22T19:47:54.785Z,10.91
2022-10-22T19:50:23.794Z,10.81
2022-10-22T19:52:55.886Z,10.85
2022-10-22T19:55:24.680Z,10.80
2022-10-22T19:57:55.953Z,10.84
2022-10-22T20:00:29.217Z,10.84
2022-10-22T20:03:00.976Z,10.77
2022-10-22T20:05:29.663Z,10.77
2022-10-22T20:08:01.152Z,10.73
2022-10-22T20:10:30.155Z,10.70
2022-10-22T20:12:59.513Z,10.70
2022-10-22T20:15:32.706Z,10.70
2022-10-22T20:18:06.175Z,10.75
2022-10-22T20:20:39.103Z,10.75
2022-10-22T20:23:09.646Z,10.77
2022-10-22T20:25:44.718Z,10.77
2022-10-22T20:28:15.455Z,10.75
2022-10-22T20:30:46.616Z,10.78
2022-10-22T20:33:16.652Z,10.80
2022-10-22T20:35:47.336Z,10.81
2022-10-22T20:38:18.896Z,10.80
2022-10-22T20:41:00.742Z,10.82
2022-10-22T20:43:31.304Z,10.84
2022-10-22T20:46:02.135Z,10.98
2022-10-22T20:48:33.483Z,10.98
2022-10-22T20:51:05.226Z,10.94
2022-10-22T20:53:46.119Z,10.98
2022-10-22T20:56:15.588Z,11.02
2022-10-22T20:58:48.544Z,11.01
2022-10-22T21:01:24.674Z,11.05
2022-10-22T21:03:58.374Z,11.00
2022-10-22T21:06:26.666Z,11.02
2022-10-22T21:09:02.788Z,11.08
2022-10-22T21:11:31.181Z,11.21
2022-10-22T21:14:00.351Z,11.23
2022-10-22T21:16:31.124Z,11.29
2022-10-22T21:19:06.707Z,11.22
2022-10-22T21:21:35.511Z,11.22
2022-10-22T21:24:06.219Z,11.15
2022-10-22T21:26:40.233Z,11.09
2022-10-22T21:29:08.973Z,11.14
2022-10-22T21:31:42.930Z,11.29
2022-10-22T21:34:13.960Z,11.32
2022-10-22T21:36:42.957Z,11.30
2022-10-22T21:39:11.882Z,11.23
2022-10-22T21:41:40.936Z,11.22
2022-10-22T21:44:09.167Z,11.14
2022-10-22T21:46:40.349Z,11.18
2022-10-22T21:49:08.455Z,11.15
2022-10-22T21:51:39.273Z,11.08
2022-10-22T21:54:09.919Z,11.08
2022-10-22T21:56:38.035Z,11.07
2022-10-22T21:59:11.676Z,11.11
2022-10-22T22:01:44.801Z,11.12
2022-10-22T22:04:13.277Z,11.00
2022-10-22T22:06:41.574Z,10.92
2022-10-22T22:09:13.562Z,10.90
2022-10-22T22:11:42.824Z,10.67
2022-10-22T22:14:12.217Z,10.56
2022-10-22T22:16:44.532Z,10.53
2022-10-22T22:19:13.556Z,10.56
2022-10-22T22:21:42.916Z,10.56
2022-10-22T22:24:14.345Z,10.54
2022-10-22T22:26:42.566Z,10.47
2022-10-22T22:29:11.859Z,10.44
2022-10-22T22:31:40.742Z,10.37
2022-10-22T22:34:18.274Z,10.28
2022-10-22T22:36:51.378Z,10.26
2022-10-22T22:39:22.777Z,10.26
2022-10-22T22:41:51.444Z,10.39
2022-10-22T22:44:19.812Z,10.40
2022-10-22T22:46:48.551Z,10.28
2022-10-22T22:49:18.586Z,10.13
2022-10-22T22:51:47.139Z,10.05
2022-10-22T22:54:15.380Z,9.99
2022-10-22T22:56:45.763Z,9.92
2022-10-22T22:59:14.023Z,9.91
2022-10-22T23:01:42.651Z,9.94
2022-10-22T23:04:13.703Z,9.96
2022-10-22T23:06:43.892Z,10.08
2022-10-22T23:09:14.896Z,10.12
2022-10-22T23:11:45.042Z,10.08
2022-10-22T23:14:15.844Z,10.06
2022-10-22T23:16:46.997Z,10.05
2022-10-22T23:19:17.778Z,10.02
2022-10-22T23:21:49.434Z,10.06
2022-10-22T23:24:22.176Z,10.03
2022-10-22T23:26:52.071Z,9.95
2022-10-22T23:29:26.663Z,10.09
2022-10-22T23:31:54.874Z,10.17
2022-10-22T23:34:27.602Z,10.25
2022-10-22T23:36:58.365Z,10.40
2022-10-22T23:39:29.738Z,10.44
2022-10-22T23:41:58.518Z,10.52
2022-10-22T23:44:29.938Z,10.54
2022-10-22T23:46:58.710Z,10.44
2022-10-22T23:49:28.194Z,10.42
2022-10-22T23:52:02.125Z,10.42
2022-10-22T23:54:30.733Z,10.34
2022-10-22T23:56:58.983Z,10.47
2022-10-22T23:59:29.559Z,10.47
